createdAt,value
2018-12-08T00:00:15.702Z,7.50
2018-12-08T00:02:43.182Z,7.40
2018-12-08T00:05:11.289Z,7.30
2018-12-08T00:07:38.949Z,7.30
2018-12-08T00:10:06.633Z,7.20
2018-12-08T00:12:34.263Z,7.20
2018-12-08T00:15:01.744Z,7.10
2018-12-08T00:17:30.109Z,7.10
2018-12-08T00:19:57.633Z,7.10
2018-12-08T00:22:25.417Z,7.10
2018-12-08T00:24:52.894Z,7.00
2018-12-08T00:27:20.350Z,7.00
2018-12-08T00:29:48.027Z,7.00
2018-12-08T00:32:15.569Z,7.00
2018-12-08T00:34:42.994Z,6.90
2018-12-08T00:37:10.733Z,6.90
2018-12-08T00:39:38.954Z,6.80
2018-12-08T00:42:06.405Z,6.70
2018-12-08T00:44:33.893Z,6.70
2018-12-08T00:47:01.373Z,6.60
2018-12-08T00:49:31.969Z,6.70
2018-12-08T00:51:59.400Z,6.60
2018-12-08T00:54:26.882Z,6.70
2018-12-08T00:56:54.358Z,6.60
2018-12-08T00:59:22.104Z,6.60
2018-12-08T01:01:49.550Z,6.50
2018-12-08T01:04:17.344Z,6.40
2018-12-08T01:06:44.821Z,6.40
2018-12-08T01:09:12.801Z,6.40
2018-12-08T01:11:40.263Z,6.30
2018-12-08T01:14:07.977Z,6.20
2018-12-08T01:16:36.357Z,6.20
2018-12-08T01:19:03.815Z,6.20
2018-12-08T01:21:31.278Z,6.20
2018-12-08T01:23:58.730Z,6.30
2018-12-08T01:26:26.422Z,6.20
2018-12-08T01:28:54.158Z,6.10
2018-12-08T01:31:21.590Z,6.10
2018-12-08T01:33:49.070Z,6.10
2018-12-08T01:36:16.533Z,6.10
2018-12-08T01:38:44.928Z,6.10
2018-12-08T01:41:12.461Z,6.00
2018-12-08T01:43:39.933Z,6.00
2018-12-08T01:46:07.408Z,6.00
2018-12-08T01:48:34.854Z,5.90
2018-12-08T01:51:02.314Z,5.90
2018-12-08T01:53:30.252Z,6.00
2018-12-08T01:55:57.744Z,6.00
2018-12-08T01:58:25.213Z,5.80
2018-12-08T02:00:53.245Z,5.80
2018-12-08T02:03:20.685Z,5.80
2018-12-08T02:05:51.335Z,5.90
2018-12-08T02:08:18.774Z,5.80
2018-12-08T02:10:46.460Z,5.80
2018-12-08T02:13:13.919Z,5.80
2018-12-08T02:15:41.504Z,5.80
2018-12-08T02:18:08.946Z,5.80
2018-12-08T02:20:37.177Z,5.90
2018-12-08T02:23:04.680Z,6.00
2018-12-08T02:25:32.408Z,6.10
2018-12-08T02:28:00.188Z,6.10
2018-12-08T02:30:27.629Z,6.10
2018-12-08T02:32:55.405Z,6.10
2018-12-08T02:35:22.894Z,6.10
2018-12-08T02:37:58.480Z,6.00
2018-12-08T02:40:25.920Z,6.00
2018-12-08T02:42:53.353Z,5.90
2018-12-08T02:45:21.522Z,5.80
2018-12-08T02:47:48.998Z,5.70
2018-12-08T02:50:16.469Z,5.60
2018-12-08T02:52:44.092Z,5.60
2018-12-08T02:55:11.609Z,5.60
2018-12-08T02:57:39.032Z,5.60
2018-12-08T03:00:07.267Z,5.60
2018-12-08T03:02:35.037Z,5.60
2018-12-08T03:05:02.781Z,5.50
2018-12-08T03:07:37.349Z,5.50
2018-12-08T03:10:05.482Z,5.40
2018-12-08T03:12:32.961Z,5.40
2018-12-08T03:15:00.604Z,5.40
2018-12-08T03:17:28.071Z,5.50
2018-12-08T03:19:55.564Z,5.50
2018-12-08T03:22:26.597Z,5.40
2018-12-08T03:24:54.036Z,5.40
2018-12-08T03:27:21.506Z,5.40
2018-12-08T03:29:49.017Z,5.40
2018-12-08T03:32:16.454Z,5.30
2018-12-08T03:34:44.700Z,5.40
2018-12-08T03:37:19.073Z,5.40
2018-12-08T03:39:46.522Z,5.40
2018-12-08T03:42:14.026Z,5.40
2018-12-08T03:44:41.752Z,5.40
2018-12-08T03:47:09.825Z,5.50
2018-12-08T03:49:37.269Z,5.50
2018-12-08T03:52:04.863Z,5.50
2018-12-08T03:54:32.370Z,5.50
2018-12-08T03:57:00.241Z,5.60
2018-12-08T03:59:27.782Z,5.60
2018-12-08T04:01:55.286Z,5.60
2018-12-08T04:04:23.670Z,5.70
2018-12-08T04:06:51.185Z,5.80
2018-12-08T04:09:18.684Z,5.80
2018-12-08T04:11:46.159Z,5.80
2018-12-08T04:14:13.703Z,5.90
2018-12-08T04:16:41.159Z,5.90
2018-12-08T04:19:08.685Z,6.00
2018-12-08T04:21:37.082Z,6.00
2018-12-08T04:24:04.522Z,5.90
2018-12-08T04:26:32.036Z,6.00
2018-12-08T04:28:59.594Z,6.00
2018-12-08T04:31:27.097Z,6.10
2018-12-08T04:33:54.626Z,6.10
2018-12-08T04:36:22.186Z,6.10
2018-12-08T04:38:49.614Z,6.00
2018-12-08T04:41:17.089Z,6.00
2018-12-08T04:43:44.562Z,5.80
2018-12-08T04:46:12.169Z,5.60
2018-12-08T04:48:40.181Z,5.50
2018-12-08T04:51:07.665Z,5.30
2018-12-08T04:53:38.230Z,5.30
2018-12-08T04:56:06.091Z,5.30
2018-12-08T04:58:33.573Z,5.30
2018-12-08T05:01:01.316Z,5.40
2018-12-08T05:03:29.694Z,5.30
2018-12-08T05:05:57.158Z,5.30
2018-12-08T05:08:24.601Z,5.30
2018-12-08T05:10:56.065Z,5.20
2018-12-08T05:13:23.533Z,5.20
2018-12-08T05:15:50.988Z,5.20
2018-12-08T05:18:19.358Z,5.20
2018-12-08T05:20:47.025Z,5.10
2018-12-08T05:23:14.541Z,5.20
2018-12-08T05:25:42.021Z,5.10
2018-12-08T05:28:09.701Z,5.00
2018-12-08T05:30:37.220Z,5.00
2018-12-08T05:33:04.709Z,5.00
2018-12-08T05:35:33.094Z,5.00
2018-12-08T05:38:00.540Z,4.80
2018-12-08T05:40:28.119Z,4.70
2018-12-08T05:42:55.574Z,4.70
2018-12-08T05:45:23.005Z,4.70
2018-12-08T05:47:50.489Z,4.70
2018-12-08T05:50:18.100Z,4.70
2018-12-08T05:52:46.338Z,4.70
2018-12-08T05:55:18.107Z,4.60
2018-12-08T05:57:45.543Z,4.60
2018-12-08T06:00:13.059Z,4.50
2018-12-08T06:02:41.461Z,4.40
2018-12-08T06:05:08.973Z,4.40
2018-12-08T06:07:36.449Z,4.30
2018-12-08T06:10:08.549Z,4.30
2018-12-08T06:12:36.578Z,4.30
2018-12-08T06:15:04.184Z,4.40
2018-12-08T06:17:31.787Z,4.50
2018-12-08T06:19:59.325Z,4.60
2018-12-08T06:22:27.001Z,4.60
2018-12-08T06:24:57.925Z,4.50
2018-12-08T06:27:26.973Z,4.40
2018-12-08T06:29:54.682Z,4.40
2018-12-08T06:32:22.354Z,4.40
2018-12-08T06:34:49.791Z,4.40
2018-12-08T06:37:17.256Z,4.50
2018-12-08T06:39:45.761Z,4.60
2018-12-08T06:42:13.230Z,4.60
2018-12-08T06:44:40.752Z,4.70
2018-12-08T06:47:08.457Z,4.80
2018-12-08T06:49:36.094Z,4.90
2018-12-08T06:52:04.655Z,4.90
2018-12-08T06:54:32.081Z,5.00
2018-12-08T06:56:59.617Z,5.00
2018-12-08T06:59:27.054Z,5.00
2018-12-08T07:01:54.529Z,5.10
2018-12-08T07:04:22.204Z,5.10
2018-12-08T07:06:49.690Z,5.10
2018-12-08T07:09:17.134Z,5.10
2018-12-08T07:11:44.661Z,5.20
2018-12-08T07:14:13.009Z,5.20
2018-12-08T07:16:40.492Z,5.20
2018-12-08T07:19:07.935Z,5.20
2018-12-08T07:21:35.411Z,5.40
2018-12-08T07:24:02.976Z,5.30
2018-12-08T07:26:30.894Z,5.30
2018-12-08T07:28:58.342Z,5.40
2018-12-08T07:31:26.894Z,5.40
2018-12-08T07:33:54.392Z,5.50
2018-12-08T07:36:21.825Z,5.50
2018-12-08T07:38:49.309Z,5.60
2018-12-08T07:41:20.566Z,5.60
2018-12-08T07:43:48.073Z,5.70
2018-12-08T07:46:16.245Z,5.70
2018-12-08T07:48:43.673Z,5.70
2018-12-08T07:51:11.406Z,5.80
2018-12-08T07:53:38.833Z,5.90
2018-12-08T07:56:06.359Z,5.90
2018-12-08T07:58:33.785Z,5.90
2018-12-08T08:01:01.265Z,6.00
2018-12-08T08:03:28.703Z,6.00
2018-12-08T08:05:56.147Z,6.00
2018-12-08T08:08:23.721Z,6.00
2018-12-08T08:10:51.185Z,6.00
2018-12-08T08:13:18.638Z,6.10
2018-12-08T08:15:46.190Z,6.10
2018-12-08T08:18:13.679Z,6.10
2018-12-08T08:20:41.113Z,6.20
2018-12-08T08:23:08.775Z,6.10
2018-12-08T08:25:36.378Z,6.10
2018-12-08T08:28:03.863Z,6.10
2018-12-08T08:30:31.395Z,6.20
2018-12-08T08:32:58.954Z,6.20
2018-12-08T08:35:27.261Z,6.20
2018-12-08T08:37:54.690Z,6.20
2018-12-08T08:40:22.148Z,6.30
2018-12-08T08:42:53.840Z,6.20
2018-12-08T08:45:22.196Z,6.30
2018-12-08T08:47:49.685Z,6.40
2018-12-08T08:50:17.182Z,6.50
2018-12-08T08:52:44.745Z,6.60
2018-12-08T08:55:12.225Z,6.60
2018-12-08T08:57:44.541Z,6.50
2018-12-08T09:00:12.006Z,6.50
2018-12-08T09:02:39.758Z,6.50
2018-12-08T09:05:07.317Z,6.60
2018-12-08T09:07:34.757Z,6.70
2018-12-08T09:10:02.578Z,6.80
2018-12-08T09:12:30.723Z,6.80
2018-12-08T09:15:01.143Z,6.90
2018-12-08T09:17:28.585Z,6.90
2018-12-08T09:19:56.080Z,6.90
2018-12-08T09:22:23.520Z,6.90
2018-12-08T09:24:50.950Z,6.90
2018-12-08T09:27:18.714Z,6.90
2018-12-08T09:29:46.181Z,6.80
2018-12-08T09:32:13.654Z,6.80
2018-12-08T09:34:41.156Z,6.80
2018-12-08T09:37:09.354Z,6.90
2018-12-08T09:39:37.019Z,7.00
2018-12-08T09:42:04.484Z,7.10
2018-12-08T09:44:35.045Z,7.10
2018-12-08T09:47:02.498Z,7.10
2018-12-08T09:49:30.223Z,7.10
2018-12-08T09:51:57.721Z,7.10
2018-12-08T09:54:25.221Z,7.10
2018-12-08T09:56:53.109Z,7.20
2018-12-08T09:59:20.551Z,7.30
2018-12-08T10:01:48.309Z,7.30
2018-12-08T10:04:15.742Z,7.40
2018-12-08T10:06:43.246Z,7.40
2018-12-08T10:09:11.075Z,7.40
2018-12-08T10:11:38.572Z,7.40
2018-12-08T10:14:09.205Z,7.30
2018-12-08T10:16:37.205Z,7.30
2018-12-08T10:19:04.649Z,7.30
2018-12-08T10:21:32.307Z,7.40
2018-12-08T10:23:59.729Z,7.40
2018-12-08T10:26:27.409Z,7.50
2018-12-08T10:28:54.905Z,7.50
2018-12-08T10:31:22.370Z,7.60
2018-12-08T10:33:50.201Z,7.70
2018-12-08T10:36:17.657Z,7.80
2018-12-08T10:38:45.786Z,7.90
2018-12-08T10:41:13.284Z,7.80
2018-12-08T10:43:41.459Z,7.90
2018-12-08T10:46:08.880Z,8.10
2018-12-08T10:48:36.369Z,8.10
2018-12-08T10:51:04.774Z,8.10
2018-12-08T10:53:32.242Z,8.20
2018-12-08T10:55:59.800Z,8.20
2018-12-08T10:58:27.236Z,8.20
2018-12-08T11:01:00.245Z,8.20
2018-12-08T11:03:27.913Z,8.20
2018-12-08T11:05:55.578Z,7.90
2018-12-08T11:08:23.026Z,7.80
2018-12-08T11:10:50.609Z,7.70
2018-12-08T11:13:18.841Z,7.70
2018-12-08T11:15:46.290Z,7.70
2018-12-08T11:18:14.121Z,7.60
2018-12-08T11:20:41.665Z,7.50
2018-12-08T11:23:09.141Z,7.40
2018-12-08T11:25:36.677Z,7.20
2018-12-08T11:28:04.383Z,7.20
2018-12-08T11:30:31.838Z,7.20
2018-12-08T11:32:59.301Z,7.10
2018-12-08T11:35:27.373Z,7.00
2018-12-08T11:37:54.884Z,7.00
2018-12-08T11:40:22.400Z,6.90
2018-12-08T11:42:49.941Z,6.80
2018-12-08T11:45:17.425Z,6.70
2018-12-08T11:47:45.175Z,6.70
2018-12-08T11:50:12.692Z,6.70
2018-12-08T11:52:40.882Z,6.70
2018-12-08T11:55:08.337Z,6.60
2018-12-08T11:57:35.797Z,6.60
2018-12-08T12:00:05.328Z,6.70
2018-12-08T12:02:33.109Z,6.70
2018-12-08T12:05:00.545Z,6.70
2018-12-08T12:07:28.049Z,6.70
2018-12-08T12:09:55.506Z,6.90
2018-12-08T12:12:23.045Z,7.20
2018-12-08T12:14:50.473Z,7.20
2018-12-08T12:17:18.340Z,7.20
2018-12-08T12:19:46.097Z,7.20
2018-12-08T12:22:14.182Z,7.30
2018-12-08T12:24:41.633Z,7.50
2018-12-08T12:27:09.089Z,7.50
2018-12-08T12:29:36.677Z,7.50
2018-12-08T12:32:04.307Z,7.40
2018-12-08T12:34:31.861Z,7.40
2018-12-08T12:36:59.351Z,7.20
2018-12-08T12:39:26.788Z,7.30
2018-12-08T12:41:54.245Z,7.30
2018-12-08T12:44:22.467Z,7.30
2018-12-08T12:46:49.886Z,7.20
2018-12-08T12:49:17.336Z,7.30
2018-12-08T12:51:44.836Z,7.40
2018-12-08T12:54:12.261Z,7.30
2018-12-08T12:56:39.736Z,7.30
2018-12-08T12:59:07.265Z,7.20
2018-12-08T13:01:34.734Z,7.10
2018-12-08T13:04:02.193Z,7.10
2018-12-08T13:06:30.510Z,7.10
2018-12-08T13:08:58.030Z,7.10
2018-12-08T13:11:25.535Z,7.00
2018-12-08T13:13:53.050Z,7.00
2018-12-08T13:16:21.513Z,7.00
2018-12-08T13:18:49.483Z,7.00
2018-12-08T13:21:16.942Z,7.00
2018-12-08T13:23:44.424Z,7.00
2018-12-08T13:26:11.881Z,7.10
2018-12-08T13:28:39.358Z,7.00
2018-12-08T13:31:06.882Z,7.10
2018-12-08T13:33:34.341Z,7.10
2018-12-08T13:36:02.175Z,7.10
2018-12-08T13:38:29.655Z,7.00
2018-12-08T13:40:58.029Z,7.10
2018-12-08T13:43:25.868Z,7.10
2018-12-08T13:45:53.339Z,7.10
2018-12-08T13:48:24.837Z,7.10
2018-12-08T13:50:53.277Z,7.10
2018-12-08T13:53:20.903Z,7.20
2018-12-08T13:55:48.398Z,7.20
2018-12-08T13:58:15.854Z,7.30
2018-12-08T14:00:43.341Z,7.30
2018-12-08T14:03:11.694Z,7.20
2018-12-08T14:05:39.265Z,7.10
2018-12-08T14:08:06.828Z,7.00
2018-12-08T14:10:34.426Z,7.00
2018-12-08T14:13:01.840Z,7.00
2018-12-08T14:15:29.493Z,6.90
2018-12-08T14:17:56.974Z,6.90
2018-12-08T14:20:26.353Z,6.90
2018-12-08T14:22:54.041Z,6.90
2018-12-08T14:25:21.668Z,6.90
2018-12-08T14:27:49.216Z,6.90
2018-12-08T14:30:16.693Z,6.80
2018-12-08T14:32:44.765Z,6.80
2018-12-08T14:35:17.180Z,6.80
2018-12-08T14:37:45.127Z,6.80
2018-12-08T14:40:12.682Z,6.80
2018-12-08T14:42:40.149Z,6.80
2018-12-08T14:45:08.174Z,6.80
2018-12-08T14:47:35.773Z,6.80
2018-12-08T14:50:03.794Z,6.80
2018-12-08T14:52:31.301Z,6.70
2018-12-08T14:54:58.959Z,6.70
2018-12-08T14:57:26.450Z,6.60
2018-12-08T14:59:53.927Z,6.60
2018-12-08T15:02:21.445Z,6.60
2018-12-08T15:04:48.876Z,6.60
2018-12-08T15:07:16.350Z,6.50
2018-12-08T15:09:43.790Z,6.50
2018-12-08T15:12:11.380Z,6.50
2018-12-08T15:14:38.817Z,6.50
2018-12-08T15:17:06.998Z,6.50
2018-12-08T15:19:38.475Z,6.50
2018-12-08T15:22:06.197Z,6.60
2018-12-08T15:24:33.655Z,6.60
2018-12-08T15:27:02.104Z,6.60
2018-12-08T15:29:29.586Z,6.60
2018-12-08T15:31:57.142Z,6.50
2018-12-08T15:34:24.618Z,6.50
2018-12-08T15:36:52.170Z,6.50
2018-12-08T15:39:19.607Z,6.40
2018-12-08T15:41:47.103Z,6.40
2018-12-08T15:44:14.641Z,6.40
2018-12-08T15:46:42.101Z,6.40
2018-12-08T15:49:10.133Z,6.40
2018-12-08T15:51:37.690Z,6.40
2018-12-08T15:54:05.167Z,6.40
2018-12-08T15:56:32.823Z,6.30
2018-12-08T15:59:00.391Z,6.30
2018-12-08T16:01:27.857Z,6.30
2018-12-08T16:03:55.641Z,6.30
2018-12-08T16:06:23.081Z,6.30
2018-12-08T16:08:50.555Z,6.40
2018-12-08T16:11:18.590Z,6.40
2018-12-08T16:13:46.072Z,6.40
2018-12-08T16:16:13.540Z,6.40
2018-12-08T16:18:40.990Z,6.50
2018-12-08T16:21:08.505Z,6.50
2018-12-08T16:23:35.982Z,6.50
2018-12-08T16:26:03.566Z,6.60
2018-12-08T16:28:31.020Z,6.50
2018-12-08T16:30:58.477Z,6.50
2018-12-08T16:33:26.649Z,6.40
2018-12-08T16:35:57.331Z,6.40
2018-12-08T16:38:24.761Z,6.50
2018-12-08T16:40:52.255Z,6.50
2018-12-08T16:43:19.725Z,6.50
2018-12-08T16:45:47.168Z,6.50
2018-12-08T16:48:14.632Z,6.60
2018-12-08T16:50:42.074Z,6.50
2018-12-08T16:53:10.502Z,6.60
2018-12-08T16:55:38.096Z,6.60
2018-12-08T16:58:05.629Z,6.70
2018-12-08T17:00:33.286Z,6.70
2018-12-08T17:03:00.754Z,6.70
2018-12-08T17:05:31.582Z,6.70
2018-12-08T17:07:59.101Z,6.70
2018-12-08T17:10:26.666Z,6.80
2018-12-08T17:12:54.698Z,6.80
2018-12-08T17:15:22.183Z,6.80
2018-12-08T17:17:49.643Z,6.90
2018-12-08T17:20:17.199Z,6.90
2018-12-08T17:22:44.765Z,7.00
2018-12-08T17:25:12.578Z,7.00
2018-12-08T17:27:40.133Z,7.00
2018-12-08T17:30:07.653Z,7.10
2018-12-08T17:32:35.465Z,7.10
2018-12-08T17:35:03.424Z,7.10
2018-12-08T17:37:30.986Z,7.10
2018-12-08T17:39:58.505Z,7.20
2018-12-08T17:42:26.039Z,7.10
2018-12-08T17:44:53.520Z,7.20
2018-12-08T17:47:20.992Z,7.20
2018-12-08T17:49:48.473Z,7.20
2018-12-08T17:52:15.969Z,7.20
2018-12-08T17:54:43.401Z,7.20
2018-12-08T17:57:11.442Z,7.20
2018-12-08T17:59:39.321Z,7.10
2018-12-08T18:02:06.846Z,7.20
2018-12-08T18:04:34.293Z,7.20
2018-12-08T18:07:05.188Z,7.20
2018-12-08T18:09:32.764Z,7.10
2018-12-08T18:12:00.996Z,7.10
2018-12-08T18:14:28.484Z,7.00
2018-12-08T18:16:56.061Z,7.00
2018-12-08T18:19:23.534Z,7.00
2018-12-08T18:21:54.623Z,7.00
2018-12-08T18:24:22.142Z,7.00
2018-12-08T18:26:50.650Z,7.00
2018-12-08T18:29:18.195Z,7.00
2018-12-08T18:31:45.634Z,6.90
2018-12-08T18:34:13.251Z,6.90
2018-12-08T18:36:40.887Z,6.80
2018-12-08T18:39:08.365Z,6.70
2018-12-08T18:41:35.942Z,6.70
2018-12-08T18:44:04.097Z,6.70
2018-12-08T18:46:31.560Z,6.60
2018-12-08T18:48:59.169Z,6.60
2018-12-08T18:51:26.771Z,6.50
2018-12-08T18:53:54.322Z,6.60
2018-12-08T18:56:21.901Z,6.50
2018-12-08T18:58:49.721Z,6.50
2018-12-08T19:01:18.096Z,6.50
2018-12-08T19:03:45.569Z,6.60
2018-12-08T19:06:13.348Z,6.60
2018-12-08T19:08:40.910Z,6.60
2018-12-08T19:11:08.450Z,6.60
2018-12-08T19:13:36.149Z,6.60
2018-12-08T19:16:03.669Z,6.70
2018-12-08T19:18:31.529Z,6.60
2018-12-08T19:20:59.029Z,6.60
2018-12-08T19:23:29.675Z,6.60
2018-12-08T19:25:57.117Z,6.60
2018-12-08T19:28:24.573Z,6.70
2018-12-08T19:30:52.313Z,6.70
2018-12-08T19:33:19.769Z,6.70
2018-12-08T19:35:47.458Z,6.70
2018-12-08T19:38:18.704Z,6.70
2018-12-08T19:40:46.275Z,6.80
2018-12-08T19:43:13.916Z,6.80
2018-12-08T19:45:41.410Z,6.80
2018-12-08T19:48:09.075Z,6.80
2018-12-08T19:50:36.602Z,6.80
2018-12-08T19:53:05.183Z,6.80
2018-12-08T19:55:32.654Z,6.90
2018-12-08T19:58:00.100Z,6.90
2018-12-08T20:00:27.558Z,6.90
2018-12-08T20:02:54.990Z,6.90
2018-12-08T20:05:22.677Z,7.00
2018-12-08T20:07:50.138Z,7.00
2018-12-08T20:10:17.587Z,6.90
2018-12-08T20:12:45.053Z,6.90
2018-12-08T20:15:12.617Z,6.90
2018-12-08T20:17:40.080Z,7.00
2018-12-08T20:20:08.547Z,7.00
2018-12-08T20:22:36.023Z,7.10
2018-12-08T20:25:03.549Z,7.10
2018-12-08T20:27:31.128Z,7.10
2018-12-08T20:29:58.554Z,7.10
2018-12-08T20:32:26.042Z,7.10
2018-12-08T20:34:53.601Z,7.10
2018-12-08T20:37:21.919Z,7.00
2018-12-08T20:39:49.343Z,7.00
2018-12-08T20:42:16.825Z,7.00
2018-12-08T20:44:44.442Z,7.00
2018-12-08T20:47:12.237Z,7.00
2018-12-08T20:49:40.512Z,6.90
2018-12-08T20:52:07.994Z,6.90
2018-12-08T20:54:40.106Z,6.80
2018-12-08T20:57:07.549Z,6.80
2018-12-08T20:59:35.453Z,6.80
2018-12-08T21:02:02.962Z,6.70
2018-12-08T21:04:30.417Z,6.70
2018-12-08T21:06:57.879Z,6.70
2018-12-08T21:09:33.658Z,6.80
2018-12-08T21:12:01.455Z,6.80
2018-12-08T21:14:28.976Z,6.90
2018-12-08T21:16:56.422Z,6.90
2018-12-08T21:19:23.865Z,7.00
2018-12-08T21:21:51.377Z,7.10
2018-12-08T21:24:18.867Z,7.10
2018-12-08T21:26:46.361Z,7.10
2018-12-08T21:29:14.895Z,7.20
2018-12-08T21:31:42.889Z,7.20
2018-12-08T21:34:10.349Z,7.20
2018-12-08T21:36:37.821Z,7.20
2018-12-08T21:39:06.130Z,7.20
2018-12-08T21:41:37.266Z,7.20
2018-12-08T21:44:04.793Z,7.20
2018-12-08T21:46:32.645Z,7.20
2018-12-08T21:49:00.116Z,7.20
2018-12-08T21:51:27.616Z,7.20
2018-12-08T21:53:55.063Z,7.20
2018-12-08T21:56:27.738Z,7.20
2018-12-08T21:58:55.200Z,7.20
2018-12-08T22:01:23.654Z,7.10
2018-12-08T22:03:51.117Z,7.20
2018-12-08T22:06:18.569Z,7.20
2018-12-08T22:08:46.134Z,7.10
2018-12-08T22:11:17.601Z,7.10
2018-12-08T22:13:45.161Z,7.10
2018-12-08T22:16:13.542Z,7.10
2018-12-08T22:18:40.968Z,7.10
2018-12-08T22:21:08.455Z,7.10
2018-12-08T22:23:35.911Z,7.10
2018-12-08T22:26:03.356Z,7.10
2018-12-08T22:28:30.953Z,7.10
2018-12-08T22:30:58.393Z,7.10
2018-12-08T22:33:25.897Z,7.10
2018-12-08T22:35:53.325Z,7.10
2018-12-08T22:38:21.506Z,7.10
2018-12-08T22:40:48.975Z,7.10
2018-12-08T22:43:16.477Z,7.10
2018-12-08T22:45:43.944Z,7.10
2018-12-08T22:48:11.401Z,7.10
2018-12-08T22:50:38.864Z,7.00
2018-12-08T22:53:06.422Z,7.00
2018-12-08T22:55:33.923Z,7.00
2018-12-08T22:58:01.352Z,6.90
2018-12-08T23:00:49.829Z,6.90
2018-12-08T23:03:17.975Z,6.90
2018-12-08T23:05:45.414Z,6.90
2018-12-08T23:08:12.931Z,6.90
2018-12-08T23:10:40.689Z,6.90
2018-12-08T23:13:15.405Z,6.90
2018-12-08T23:15:43.856Z,6.90
2018-12-08T23:18:11.325Z,6.80
2018-12-08T23:20:38.775Z,6.80
2018-12-08T23:23:06.521Z,6.80
2018-12-08T23:25:33.978Z,6.80
2018-12-08T23:28:02.424Z,6.80
2018-12-08T23:30:30.331Z,6.70
2018-12-08T23:32:57.758Z,6.80
2018-12-08T23:35:25.921Z,6.80
2018-12-08T23:37:53.425Z,6.70
2018-12-08T23:40:21.789Z,6.70
2018-12-08T23:42:49.313Z,6.80
2018-12-08T23:45:16.810Z,6.80
2018-12-08T23:47:44.317Z,6.80
2018-12-08T23:50:11.955Z,6.90
2018-12-08T23:52:39.820Z,6.90
2018-12-08T23:55:07.355Z,6.90
2018-12-08T23:57:43.505Z,6.90
